createdAt,value
2022-08-31T00:05:43.400Z,100586.63
2022-08-31T00:12:31.532Z,100579.84
2022-08-31T00:19:17.364Z,100582.69
2022-08-31T00:26:03.420Z,100587.97
2022-08-31T00:32:51.561Z,100386.47
2022-08-31T00:39:37.712Z,100599.59
2022-08-31T00:46:27.827Z,100591.56
2022-08-31T00:53:16.026Z,100586.38
2022-08-31T01:00:04.527Z,100586.34
2022-08-31T01:06:51.850Z,100592.81
2022-08-31T01:13:40.297Z,100590.00
2022-08-31T01:20:32.745Z,100602.09
2022-08-31T01:27:25.796Z,100622.19
2022-08-31T01:34:12.460Z,100624.59
2022-08-31T01:41:02.648Z,100616.59
2022-08-31T01:47:51.121Z,100610.19
2022-08-31T01:54:36.696Z,100622.63
2022-08-31T02:01:34.641Z,100608.59
2022-08-31T02:08:23.465Z,100617.81
2022-08-31T02:15:11.505Z,100619.03
2022-08-31T02:21:57.532Z,100610.19
2022-08-31T02:28:45.544Z,100620.22
2022-08-31T02:35:31.029Z,100627.03
2022-08-31T02:42:16.255Z,100625.44
2022-08-31T03:02:55.422Z,100633.75
2022-08-31T03:09:41.858Z,100628.91
2022-08-31T03:16:29.414Z,100616.00
2022-08-31T03:23:18.111Z,100629.25
2022-08-31T03:30:06.108Z,100636.03
2022-08-31T03:36:53.162Z,100626.78
2022-08-31T03:43:41.888Z,100569.59
2022-08-31T03:50:29.584Z,100640.84
2022-08-31T03:57:20.160Z,100649.66
2022-08-31T04:04:09.494Z,100656.88
2022-08-31T04:11:16.172Z,100668.91
2022-08-31T04:18:20.760Z,100646.34
2022-08-31T04:25:12.504Z,100674.09
2022-08-31T04:32:03.931Z,100691.25
2022-08-31T04:38:53.014Z,100625.25
2022-08-31T04:45:46.163Z,100662.66
2022-08-31T04:52:32.594Z,100609.84
2022-08-31T04:59:26.132Z,100702.09
2022-08-31T05:06:40.307Z,100707.63
2022-08-31T05:13:26.309Z,100685.75
2022-08-31T05:20:13.110Z,100716.69
2022-08-31T05:27:01.909Z,100710.97
2022-08-31T05:33:48.871Z,100708.94
2022-08-31T05:40:36.255Z,100720.78
2022-08-31T05:47:24.409Z,100656.53
2022-08-31T05:54:11.213Z,100743.47
2022-08-31T06:00:56.666Z,100748.72
2022-08-31T06:08:16.596Z,100748.66
2022-08-31T06:15:05.515Z,100758.63
2022-08-31T06:21:51.887Z,100771.75
2022-08-31T06:28:46.411Z,100767.44
2022-08-31T06:35:32.646Z,100772.38
2022-08-31T06:42:36.674Z,100784.78
2022-08-31T06:49:25.058Z,100792.28
2022-08-31T06:56:20.326Z,100813.88
2022-08-31T07:03:36.021Z,100826.88
2022-08-31T07:10:24.179Z,100827.03
2022-08-31T07:17:10.566Z,100834.44
2022-08-31T07:23:57.852Z,100840.16
2022-08-31T07:30:46.046Z,100837.91
2022-08-31T07:37:46.765Z,100795.28
2022-08-31T07:44:34.589Z,100845.13
2022-08-31T07:51:24.414Z,100848.44
2022-08-31T07:58:28.583Z,100860.94
2022-08-31T08:05:21.284Z,100862.19
2022-08-31T08:12:36.384Z,100856.38
2022-08-31T08:19:40.137Z,100872.13
2022-08-31T08:26:26.419Z,100807.38
2022-08-31T08:33:40.697Z,100870.50
2022-08-31T08:40:37.300Z,100887.38
2022-08-31T08:47:37.960Z,100883.81
2022-08-31T08:54:34.073Z,100885.94
2022-08-31T09:01:30.597Z,100891.63
2022-08-31T09:08:51.000Z,100848.44
2022-08-31T09:16:04.645Z,100894.81
2022-08-31T09:22:57.217Z,100792.16
2022-08-31T09:29:46.281Z,100888.72
2022-08-31T09:36:41.540Z,100887.09
2022-08-31T09:43:38.799Z,100883.50
2022-08-31T09:50:36.799Z,100886.69
2022-08-31T09:57:47.824Z,100876.81
2022-08-31T10:04:38.161Z,100864.50
2022-08-31T10:11:26.678Z,100861.91
2022-08-31T10:18:20.152Z,100865.25
2022-08-31T10:25:21.511Z,100814.16
2022-08-31T10:32:23.837Z,100856.44
2022-08-31T10:39:36.337Z,100858.50
2022-08-31T10:46:22.288Z,100870.63
2022-08-31T10:53:34.642Z,100871.88
2022-08-31T11:00:48.917Z,100872.72
2022-08-31T11:07:45.425Z,100865.66
2022-08-31T11:15:06.017Z,100858.66
2022-08-31T11:22:28.663Z,100859.47
2022-08-31T11:29:36.958Z,100859.56
2022-08-31T11:36:52.886Z,100835.44
2022-08-31T11:43:54.767Z,100853.63
2022-08-31T11:51:07.878Z,100848.09
2022-08-31T11:58:21.179Z,100839.41
2022-08-31T12:05:10.559Z,100831.13
2022-08-31T12:12:07.618Z,100829.63
2022-08-31T12:19:26.288Z,100826.50
2022-08-31T12:26:45.691Z,100826.50
2022-08-31T12:33:33.366Z,100827.72
2022-08-31T12:40:23.558Z,100810.56
2022-08-31T12:47:26.185Z,100823.28
2022-08-31T12:54:46.606Z,100822.59
2022-08-31T13:01:32.560Z,100812.63
2022-08-31T13:08:31.144Z,100801.06
2022-08-31T13:15:26.882Z,100793.88
2022-08-31T13:22:17.374Z,100781.88
2022-08-31T13:29:10.872Z,100773.03
2022-08-31T13:36:03.966Z,100668.47
2022-08-31T13:42:57.085Z,100745.28
2022-08-31T13:49:49.864Z,100700.19
2022-08-31T13:56:59.055Z,100741.09
2022-08-31T14:03:57.224Z,100737.53
2022-08-31T14:10:49.996Z,100737.53
2022-08-31T14:17:35.960Z,100744.47
2022-08-31T14:24:21.504Z,100752.91
2022-08-31T14:31:24.664Z,100740.03
2022-08-31T14:38:15.367Z,100741.25
2022-08-31T14:45:04.997Z,100729.16
2022-08-31T14:51:53.329Z,100676.09
2022-08-31T14:58:42.149Z,100717.09
2022-08-31T15:05:29.376Z,100719.91
2022-08-31T15:12:18.440Z,100722.34
2022-08-31T15:19:05.729Z,100724.75
2022-08-31T15:25:51.168Z,100720.75
2022-08-31T15:32:46.344Z,100707.88
2022-08-31T15:39:36.360Z,100698.19
2022-08-31T15:46:44.009Z,100523.00
2022-08-31T15:53:35.453Z,100693.72
2022-08-31T16:00:21.321Z,100700.50
2022-08-31T16:07:09.283Z,100683.56
2022-08-31T16:14:01.268Z,100673.91
2022-08-31T16:20:49.157Z,100675.13
2022-08-31T16:27:35.002Z,100662.25
2022-08-31T16:34:24.169Z,100661.06
2022-08-31T16:41:10.985Z,100638.56
2022-08-31T16:48:16.589Z,100660.66
2022-08-31T16:55:04.653Z,100655.00
2022-08-31T17:01:50.439Z,100607.69
2022-08-31T17:08:37.252Z,100659.91
2022-08-31T17:15:26.761Z,100662.75
2022-08-31T17:22:23.406Z,100669.59
2022-08-31T17:29:12.447Z,100663.97
2022-08-31T17:36:02.419Z,100674.47
2022-08-31T17:42:48.514Z,100676.47
2022-08-31T17:49:37.917Z,100683.69
2022-08-31T17:56:28.555Z,100698.59
2022-08-31T18:03:14.044Z,100702.63
2022-08-31T18:10:00.270Z,100725.97
2022-08-31T18:16:50.590Z,100697.00
2022-08-31T18:23:37.955Z,100735.19
2022-08-31T18:30:23.778Z,100738.00
2022-08-31T18:37:12.959Z,100739.63
2022-08-31T18:44:11.303Z,100745.25
2022-08-31T18:50:59.080Z,100712.28
2022-08-31T18:57:49.059Z,100759.34
2022-08-31T19:04:35.319Z,100745.31
2022-08-31T19:11:23.527Z,100769.41
2022-08-31T19:18:11.893Z,100775.03
2022-08-31T19:24:59.463Z,100781.88
2022-08-31T19:31:51.959Z,100762.97
2022-08-31T19:38:40.586Z,100767.38
2022-08-31T19:45:42.340Z,100765.75
2022-08-31T19:52:28.664Z,100764.88
2022-08-31T19:59:20.127Z,100757.66
2022-08-31T20:06:09.795Z,100755.94
2022-08-31T20:12:56.248Z,100766.75
2022-08-31T20:19:45.057Z,100765.44
2022-08-31T20:26:36.166Z,100767.81
2022-08-31T20:33:25.301Z,100775.75
2022-08-31T20:40:17.188Z,100766.00
2022-08-31T20:47:18.382Z,100771.53
2022-08-31T20:54:04.795Z,100771.03
2022-08-31T21:00:52.860Z,100718.53
2022-08-31T21:07:38.306Z,100784.94
2022-08-31T21:14:26.276Z,100785.19
2022-08-31T21:21:18.433Z,100727.72
2022-08-31T21:28:03.836Z,100789.59
2022-08-31T21:34:49.396Z,100781.84
2022-08-31T21:41:38.908Z,100774.50
2022-08-31T21:48:26.049Z,100776.75
2022-08-31T21:55:13.694Z,100768.44
2022-08-31T22:02:04.176Z,100745.72
2022-08-31T22:08:50.707Z,100783.44
2022-08-31T22:15:37.441Z,100792.47
2022-08-31T22:22:25.582Z,100773.44
2022-08-31T22:29:15.293Z,100784.59
2022-08-31T22:36:00.740Z,100772.25
2022-08-31T22:42:51.867Z,100777.53
2022-08-31T22:49:37.542Z,100792.72
2022-08-31T22:56:27.667Z,100775.84
2022-08-31T23:03:15.801Z,100783.03
2022-08-31T23:10:02.402Z,100785.00
2022-08-31T23:16:57.303Z,100780.88
2022-08-31T23:23:45.850Z,100765.75
2022-08-31T23:30:31.567Z,100776.59
2022-08-31T23:37:17.934Z,100784.63
2022-08-31T23:44:09.268Z,100762.59
2022-08-31T23:50:55.483Z,100766.97
2022-08-31T23:57:41.890Z,100723.41
